createdAt,value
2023-01-12T00:01:08.001Z,0.50
2023-01-12T00:03:34.636Z,0.50
2023-01-12T00:06:01.561Z,0.60
2023-01-12T00:08:28.085Z,0.55
2023-01-12T00:10:57.439Z,0.50
2023-01-12T00:13:24.028Z,0.50
2023-01-12T00:16:09.071Z,0.60
2023-01-12T00:18:35.701Z,0.60
2023-01-12T00:21:02.320Z,0.50
2023-01-12T00:23:29.370Z,0.60
2023-01-12T00:25:56.016Z,0.60
2023-01-12T00:28:22.632Z,0.60
2023-01-12T00:30:49.251Z,0.57
2023-01-12T00:33:15.954Z,0.50
2023-01-12T00:35:42.536Z,0.60
2023-01-12T00:38:09.127Z,0.52
2023-01-12T00:40:36.567Z,0.50
2023-01-12T00:43:22.055Z,0.50
2023-01-12T00:45:51.719Z,0.60
2023-01-12T00:48:18.425Z,0.50
2023-01-12T00:50:46.517Z,0.50
2023-01-12T00:53:13.653Z,0.50
2023-01-12T00:55:40.188Z,0.50
2023-01-12T00:58:06.984Z,0.50
2023-01-12T01:00:33.540Z,0.50
2023-01-12T01:03:00.246Z,0.50
2023-01-12T01:05:26.833Z,0.60
2023-01-12T01:07:53.453Z,0.50
2023-01-12T01:10:20.108Z,0.50
2023-01-12T01:12:47.092Z,0.50
2023-01-12T01:15:13.799Z,0.50
2023-01-12T01:17:40.551Z,0.50
2023-01-12T01:20:07.512Z,0.57
2023-01-12T01:22:34.074Z,0.50
2023-01-12T01:25:00.709Z,0.50
2023-01-12T01:27:27.291Z,0.52
2023-01-12T01:29:53.824Z,0.50
2023-01-12T01:32:20.437Z,0.50
2023-01-12T01:34:47.871Z,0.50
2023-01-12T01:37:14.486Z,0.50
2023-01-12T01:39:41.150Z,0.50
2023-01-12T01:42:28.048Z,0.50
2023-01-12T01:44:57.617Z,0.50
2023-01-12T01:47:43.152Z,0.50
2023-01-12T01:50:19.215Z,0.47
2023-01-12T01:52:51.200Z,0.50
2023-01-12T01:55:23.032Z,0.50
2023-01-12T01:57:55.004Z,0.50
2023-01-12T02:00:23.180Z,0.50
2023-01-12T02:02:50.091Z,0.60
2023-01-12T02:05:20.359Z,0.50
2023-01-12T02:07:49.414Z,0.50
2023-01-12T02:10:16.737Z,0.50
2023-01-12T02:13:01.889Z,0.50
2023-01-12T02:15:52.282Z,0.50
2023-01-12T02:18:33.332Z,0.50
2023-01-12T02:21:12.870Z,0.50
2023-01-12T02:23:54.495Z,0.50
2023-01-12T02:27:05.280Z,0.50
2023-01-12T02:29:56.708Z,0.50
2023-01-12T02:33:02.104Z,0.50
2023-01-12T02:35:43.402Z,0.50
2023-01-12T02:38:26.776Z,0.50
2023-01-12T02:41:19.347Z,0.50
2023-01-12T02:43:46.146Z,0.50
2023-01-12T02:46:23.259Z,0.50
2023-01-12T02:49:04.337Z,0.50
2023-01-12T02:51:37.540Z,0.50
2023-01-12T02:54:17.559Z,0.50
2023-01-12T02:56:48.195Z,0.50
2023-01-12T02:59:27.038Z,0.50
2023-01-12T03:01:57.872Z,0.50
2023-01-12T03:04:25.727Z,0.50
2023-01-12T03:06:58.025Z,0.50
2023-01-12T03:09:38.694Z,0.55
2023-01-12T03:12:13.781Z,0.50
2023-01-12T03:14:45.823Z,0.60
2023-01-12T03:17:22.498Z,0.50
2023-01-12T03:19:50.460Z,0.50
2023-01-12T03:22:19.773Z,0.50
2023-01-12T03:24:54.641Z,0.55
2023-01-12T03:27:27.544Z,0.57
2023-01-12T03:30:05.129Z,0.50
2023-01-12T03:32:32.208Z,0.50
2023-01-12T03:34:59.653Z,0.50
2023-01-12T03:37:42.867Z,0.50
2023-01-12T03:40:18.830Z,0.50
2023-01-12T03:43:06.898Z,0.50
2023-01-12T03:45:36.508Z,0.50
2023-01-12T03:48:08.839Z,0.50
2023-01-12T03:50:45.482Z,0.50
2023-01-12T03:53:15.427Z,0.50
2023-01-12T03:55:43.503Z,0.50
2023-01-12T03:58:10.400Z,0.57
2023-01-12T04:00:38.039Z,0.60
2023-01-12T04:03:09.335Z,0.50
2023-01-12T04:05:36.209Z,0.50
2023-01-12T04:08:02.897Z,0.40
2023-01-12T04:10:29.588Z,0.50
2023-01-12T04:12:56.317Z,0.50
2023-01-12T04:15:22.907Z,0.50
2023-01-12T04:17:49.591Z,0.50
2023-01-12T04:20:16.493Z,0.50
2023-01-12T04:22:45.157Z,0.50
2023-01-12T04:25:20.880Z,0.50
2023-01-12T04:27:53.583Z,0.50
2023-01-12T04:30:23.554Z,0.50
2023-01-12T04:32:51.279Z,0.60
2023-01-12T04:35:18.131Z,0.60
2023-01-12T04:37:44.934Z,0.50
2023-01-12T04:40:13.860Z,0.50
2023-01-12T04:43:08.744Z,0.50
2023-01-12T04:45:41.586Z,0.57
2023-01-12T04:48:13.310Z,0.50
2023-01-12T04:50:40.521Z,0.50
2023-01-12T04:53:09.235Z,0.50
2023-01-12T04:55:37.273Z,0.60
2023-01-12T04:58:03.997Z,0.50
2023-01-12T05:00:30.945Z,0.60
2023-01-12T05:03:02.213Z,0.60
2023-01-12T05:05:30.209Z,0.50
2023-01-12T05:08:18.359Z,0.60
2023-01-12T05:10:54.487Z,0.50
2023-01-12T05:13:22.199Z,0.50
2023-01-12T05:15:48.753Z,0.50
2023-01-12T05:18:15.873Z,0.55
2023-01-12T05:20:42.478Z,0.60
2023-01-12T05:23:09.315Z,0.50
2023-01-12T05:25:35.932Z,0.50
2023-01-12T05:28:02.611Z,0.60
2023-01-12T05:30:31.729Z,0.50
2023-01-12T05:32:58.757Z,0.50
2023-01-12T05:35:25.380Z,0.60
2023-01-12T05:37:52.002Z,0.50
2023-01-12T05:40:18.667Z,0.50
2023-01-12T05:43:03.678Z,0.52
2023-01-12T05:45:30.280Z,0.60
2023-01-12T05:48:00.511Z,0.50
2023-01-12T05:50:27.337Z,0.50
2023-01-12T05:52:53.980Z,0.50
2023-01-12T05:55:20.599Z,0.50
2023-01-12T05:57:47.173Z,0.52
2023-01-12T06:00:14.129Z,0.50
2023-01-12T06:02:40.701Z,0.50
2023-01-12T06:05:09.567Z,0.50
2023-01-12T06:07:36.902Z,0.50
2023-01-12T06:10:04.838Z,0.50
2023-01-12T06:12:49.680Z,0.50
2023-01-12T06:15:16.276Z,0.50
2023-01-12T06:17:42.939Z,0.50
2023-01-12T06:20:10.664Z,0.50
2023-01-12T06:22:37.210Z,0.50
2023-01-12T06:25:03.952Z,0.50
2023-01-12T06:27:35.453Z,0.55
2023-01-12T06:30:04.151Z,0.50
2023-01-12T06:32:33.324Z,0.52
2023-01-12T06:35:07.055Z,0.50
2023-01-12T06:37:40.859Z,0.60
2023-01-12T06:40:08.340Z,0.50
2023-01-12T06:42:37.720Z,0.50
2023-01-12T06:45:04.609Z,0.50
2023-01-12T06:47:31.531Z,0.50
2023-01-12T06:49:58.328Z,0.50
2023-01-12T06:52:27.083Z,0.60
2023-01-12T06:54:54.179Z,0.50
2023-01-12T06:57:20.784Z,0.50
2023-01-12T06:59:47.326Z,0.57
2023-01-12T07:02:16.277Z,0.50
2023-01-12T07:04:43.205Z,0.50
2023-01-12T07:07:10.433Z,0.50
2023-01-12T07:09:37.367Z,0.55
2023-01-12T07:12:04.757Z,0.52
2023-01-12T07:14:31.648Z,0.60
2023-01-12T07:16:58.277Z,0.50
2023-01-12T07:19:25.004Z,0.60
2023-01-12T07:21:51.551Z,0.50
2023-01-12T07:24:18.414Z,0.60
2023-01-12T07:26:47.818Z,0.50
2023-01-12T07:29:19.153Z,0.60
2023-01-12T07:31:49.057Z,0.60
2023-01-12T07:34:16.309Z,0.60
2023-01-12T07:36:43.111Z,0.60
2023-01-12T07:39:11.286Z,0.52
2023-01-12T07:41:56.336Z,0.60
2023-01-12T07:44:23.002Z,0.60
2023-01-12T07:46:49.603Z,0.50
2023-01-12T07:49:16.341Z,0.50
2023-01-12T07:51:43.084Z,0.50
2023-01-12T07:54:10.022Z,0.50
2023-01-12T07:56:36.687Z,0.60
2023-01-12T07:59:03.504Z,0.50
2023-01-12T08:01:32.644Z,0.50
2023-01-12T08:03:59.322Z,0.50
2023-01-12T08:06:25.995Z,0.50
2023-01-12T08:08:54.319Z,0.50
2023-01-12T08:11:21.080Z,0.50
2023-01-12T08:13:47.726Z,0.50
2023-01-12T08:16:23.141Z,0.60
2023-01-12T08:18:58.099Z,0.60
2023-01-12T08:21:33.238Z,0.50
2023-01-12T08:24:01.953Z,0.52
2023-01-12T08:26:35.622Z,0.60
2023-01-12T08:29:13.003Z,0.60
2023-01-12T08:31:40.457Z,0.50
2023-01-12T08:34:08.475Z,0.60
2023-01-12T08:36:36.146Z,0.50
2023-01-12T08:39:04.463Z,0.60
2023-01-12T08:41:34.187Z,0.60
2023-01-12T08:44:02.719Z,0.50
2023-01-12T08:46:32.115Z,0.60
2023-01-12T08:48:59.308Z,0.57
2023-01-12T08:51:26.196Z,0.60
2023-01-12T08:53:52.893Z,0.55
2023-01-12T08:56:19.573Z,0.60
2023-01-12T08:58:46.281Z,0.60
2023-01-12T09:01:16.738Z,0.60
2023-01-12T09:03:44.521Z,0.50
2023-01-12T09:06:31.543Z,0.60
2023-01-12T09:09:00.370Z,0.60
2023-01-12T09:11:30.730Z,0.60
2023-01-12T09:14:05.468Z,0.60
2023-01-12T09:16:35.554Z,0.60
2023-01-12T09:19:10.038Z,0.60
2023-01-12T09:21:40.721Z,0.60
2023-01-12T09:24:11.650Z,0.60
2023-01-12T09:26:44.063Z,0.50
2023-01-12T09:29:15.166Z,0.60
2023-01-12T09:31:47.732Z,0.60
2023-01-12T09:34:16.518Z,0.60
2023-01-12T09:36:46.907Z,0.60
2023-01-12T09:39:27.806Z,0.60
2023-01-12T09:42:15.116Z,0.60
2023-01-12T09:45:03.508Z,0.60
2023-01-12T09:47:53.461Z,0.60
2023-01-12T09:50:28.392Z,0.60
2023-01-12T09:53:22.084Z,0.60
2023-01-12T09:56:04.125Z,0.60
2023-01-12T09:58:55.338Z,0.60
2023-01-12T10:01:29.153Z,0.57
2023-01-12T10:04:02.505Z,0.60
2023-01-12T10:06:32.558Z,0.60
2023-01-12T10:09:04.669Z,0.70
2023-01-12T10:11:59.249Z,0.60
2023-01-12T10:14:56.748Z,0.60
2023-01-12T10:17:50.714Z,0.60
2023-01-12T10:20:30.351Z,0.70
2023-01-12T10:23:09.555Z,0.60
2023-01-12T10:25:52.226Z,0.60
2023-01-12T10:28:25.684Z,0.60
2023-01-12T10:31:00.959Z,0.60
2023-01-12T10:33:35.228Z,0.60
2023-01-12T10:36:21.629Z,0.60
2023-01-12T10:39:05.725Z,0.60
2023-01-12T10:41:39.912Z,0.60
2023-01-12T10:44:14.481Z,0.60
2023-01-12T10:46:41.596Z,0.60
2023-01-12T10:49:20.679Z,0.68
2023-01-12T10:52:24.260Z,0.60
2023-01-12T10:54:51.279Z,0.52
2023-01-12T10:57:25.660Z,0.60
2023-01-12T10:59:55.828Z,0.60
2023-01-12T11:02:28.231Z,0.60
2023-01-12T11:04:56.154Z,0.60
2023-01-12T11:07:30.008Z,0.60
2023-01-12T11:10:19.431Z,0.60
2023-01-12T11:12:56.250Z,0.60
2023-01-12T11:15:23.061Z,0.60
2023-01-12T11:18:17.358Z,0.70
2023-01-12T11:20:54.523Z,0.70
2023-01-12T11:23:45.656Z,0.60
2023-01-12T11:26:22.914Z,0.70
2023-01-12T11:28:55.956Z,0.70
2023-01-12T11:31:38.992Z,0.70
2023-01-12T11:34:17.027Z,0.70
2023-01-12T11:36:48.926Z,0.60
2023-01-12T11:39:20.524Z,0.70
2023-01-12T11:42:10.189Z,0.70
2023-01-12T11:44:53.086Z,0.65
2023-01-12T11:47:34.509Z,0.70
2023-01-12T11:50:26.117Z,0.70
2023-01-12T11:52:54.665Z,0.70
2023-01-12T11:55:41.919Z,0.70
2023-01-12T11:58:31.796Z,0.70
2023-01-12T12:01:09.459Z,0.70
2023-01-12T12:03:57.829Z,0.70
2023-01-12T12:06:30.366Z,0.70
2023-01-12T12:09:20.408Z,0.70
2023-01-12T12:11:57.573Z,0.60
2023-01-12T12:14:39.207Z,0.60
2023-01-12T12:17:14.348Z,0.70
2023-01-12T12:19:56.162Z,0.70
2023-01-12T12:22:25.776Z,0.63
2023-01-12T12:25:24.176Z,0.70
2023-01-12T12:28:14.966Z,0.70
2023-01-12T12:31:21.407Z,0.70
2023-01-12T12:33:57.337Z,0.70
2023-01-12T12:36:32.730Z,0.70
2023-01-12T12:39:46.679Z,0.70
2023-01-12T12:42:40.904Z,0.80
2023-01-12T12:45:16.774Z,0.70
2023-01-12T12:48:02.414Z,0.70
2023-01-12T12:50:44.329Z,0.70
2023-01-12T12:53:25.752Z,0.70
2023-01-12T12:55:54.294Z,0.70
2023-01-12T12:58:20.848Z,0.70
2023-01-12T13:00:48.773Z,0.70
2023-01-12T13:03:40.410Z,0.77
2023-01-12T13:06:27.391Z,0.70
2023-01-12T13:08:57.825Z,0.70
2023-01-12T13:11:54.072Z,0.75
2023-01-12T13:14:32.783Z,0.80
2023-01-12T13:17:03.897Z,0.70
2023-01-12T13:19:42.415Z,0.90
2023-01-12T13:22:18.185Z,0.70
2023-01-12T13:24:46.058Z,0.80
2023-01-12T13:27:49.571Z,0.70
2023-01-12T13:30:28.376Z,0.75
2023-01-12T13:32:54.993Z,0.80
2023-01-12T13:35:33.897Z,0.80
2023-01-12T13:38:11.858Z,0.70
2023-01-12T13:40:38.555Z,0.80
2023-01-12T13:43:17.391Z,0.80
2023-01-12T13:45:59.532Z,0.70
2023-01-12T13:48:27.726Z,0.80
2023-01-12T13:50:58.930Z,0.70
2023-01-12T13:53:29.024Z,0.63
2023-01-12T13:56:07.460Z,0.65
2023-01-12T13:58:40.692Z,0.60
2023-01-12T14:01:19.073Z,0.70
2023-01-12T14:04:13.606Z,0.60
2023-01-12T14:07:06.432Z,0.70
2023-01-12T14:10:07.133Z,0.70
2023-01-12T14:12:45.940Z,0.70
2023-01-12T14:15:47.119Z,0.70
2023-01-12T14:18:16.814Z,0.70
2023-01-12T14:20:46.483Z,0.60
2023-01-12T14:23:23.589Z,0.70
2023-01-12T14:26:13.724Z,0.70
2023-01-12T14:28:46.054Z,0.60
2023-01-12T14:31:20.906Z,0.70
2023-01-12T14:33:53.697Z,0.70
2023-01-12T14:36:45.369Z,0.60
2023-01-12T14:39:20.277Z,0.70
2023-01-12T14:42:07.865Z,0.60
2023-01-12T14:44:57.461Z,0.68
2023-01-12T14:47:34.993Z,0.60
2023-01-12T14:50:16.152Z,0.60
2023-01-12T14:52:45.322Z,0.60
2023-01-12T14:55:39.247Z,0.60
2023-01-12T15:00:36.589Z,0.70
2023-01-12T15:03:21.262Z,0.68
2023-01-12T15:05:54.951Z,0.55
2023-01-12T15:08:31.196Z,0.60
2023-01-12T15:11:05.540Z,0.60
2023-01-12T15:13:33.750Z,0.70
2023-01-12T15:16:20.509Z,0.60
2023-01-12T15:19:06.003Z,0.60
2023-01-12T15:21:52.088Z,0.60
2023-01-12T15:24:44.647Z,0.70
2023-01-12T15:27:13.699Z,0.60
2023-01-12T15:29:40.557Z,0.60
2023-01-12T15:32:14.493Z,0.60
2023-01-12T15:34:41.083Z,0.60
2023-01-12T15:37:13.067Z,0.60
2023-01-12T15:39:39.679Z,0.60
2023-01-12T15:42:20.048Z,0.60
2023-01-12T15:44:48.705Z,0.65
2023-01-12T15:47:16.730Z,0.60
2023-01-12T15:49:48.331Z,0.60
2023-01-12T15:52:21.561Z,0.50
2023-01-12T15:54:48.880Z,0.60
2023-01-12T15:57:16.286Z,0.60
2023-01-12T15:59:43.445Z,0.60
2023-01-12T16:02:28.339Z,0.60
2023-01-12T16:04:55.024Z,0.60
2023-01-12T16:07:21.959Z,0.60
2023-01-12T16:09:49.861Z,0.60
2023-01-12T16:12:17.834Z,0.55
2023-01-12T16:14:45.025Z,0.60
2023-01-12T16:17:11.626Z,0.50
2023-01-12T16:19:41.526Z,0.60
2023-01-12T16:22:15.178Z,0.57
2023-01-12T16:24:43.997Z,0.50
2023-01-12T16:27:11.003Z,0.60
2023-01-12T16:29:37.840Z,0.60
2023-01-12T16:32:05.331Z,0.60
2023-01-12T16:34:32.697Z,0.60
2023-01-12T16:37:00.815Z,0.60
2023-01-12T16:39:27.948Z,0.60
2023-01-12T16:42:00.369Z,0.60
2023-01-12T16:44:27.523Z,0.60
2023-01-12T16:46:54.165Z,0.60
2023-01-12T16:49:20.738Z,0.60
2023-01-12T16:51:47.402Z,0.50
2023-01-12T16:54:13.996Z,0.60
2023-01-12T16:56:40.717Z,0.60
2023-01-12T16:59:08.028Z,0.50
2023-01-12T17:01:35.714Z,0.60
2023-01-12T17:04:02.756Z,0.60
2023-01-12T17:06:30.411Z,0.60
2023-01-12T17:09:01.470Z,0.50
2023-01-12T17:11:28.308Z,0.50
2023-01-12T17:13:56.496Z,0.60
2023-01-12T17:16:25.312Z,0.60
2023-01-12T17:18:52.615Z,0.60
2023-01-12T17:21:20.141Z,0.60
2023-01-12T17:23:47.743Z,0.60
2023-01-12T17:26:19.844Z,0.60
2023-01-12T17:28:47.344Z,0.60
2023-01-12T17:31:17.081Z,0.60
2023-01-12T17:33:44.200Z,0.60
2023-01-12T17:36:14.412Z,0.70
2023-01-12T17:38:41.258Z,0.60
2023-01-12T17:41:34.196Z,0.60
2023-01-12T17:44:03.437Z,0.60
2023-01-12T17:46:31.038Z,0.60
2023-01-12T17:48:59.172Z,0.60
2023-01-12T17:51:26.348Z,0.60
2023-01-12T17:53:57.442Z,0.60
2023-01-12T17:56:24.916Z,0.60
2023-01-12T17:58:55.170Z,0.60
2023-01-12T18:01:24.163Z,0.60
2023-01-12T18:03:51.349Z,0.60
2023-01-12T18:06:26.091Z,0.60
2023-01-12T18:08:53.930Z,0.60
2023-01-12T18:11:20.598Z,0.60
2023-01-12T18:13:47.735Z,0.60
2023-01-12T18:16:15.518Z,0.60
2023-01-12T18:18:44.235Z,0.60
2023-01-12T18:21:16.391Z,0.70
2023-01-12T18:23:44.810Z,0.60
2023-01-12T18:26:18.161Z,0.60
2023-01-12T18:28:45.095Z,0.57
2023-01-12T18:31:17.863Z,0.65
2023-01-12T18:33:45.661Z,0.60
2023-01-12T18:36:19.492Z,0.60
2023-01-12T18:38:46.414Z,0.60
2023-01-12T18:41:31.850Z,0.60
2023-01-12T18:44:00.635Z,0.60
2023-01-12T18:46:49.840Z,0.70
2023-01-12T18:49:47.138Z,0.60
2023-01-12T18:52:34.321Z,0.60
2023-01-12T18:55:01.402Z,0.50
2023-01-12T18:57:32.623Z,0.50
2023-01-12T19:00:13.724Z,0.60
2023-01-12T19:02:42.627Z,0.50
2023-01-12T19:05:18.397Z,0.60
2023-01-12T19:08:08.515Z,0.60
2023-01-12T19:10:35.670Z,0.60
2023-01-12T19:13:21.057Z,0.60
2023-01-12T19:16:06.555Z,0.57
2023-01-12T19:18:37.438Z,0.60
2023-01-12T19:21:26.985Z,0.60
2023-01-12T19:24:12.912Z,0.50
2023-01-12T19:26:59.850Z,0.50
2023-01-12T19:29:27.941Z,0.50
2023-01-12T19:31:55.411Z,0.52
2023-01-12T19:34:25.705Z,0.50
2023-01-12T19:36:53.471Z,0.60
2023-01-12T19:39:29.462Z,0.60
2023-01-12T19:42:15.889Z,0.50
2023-01-12T19:44:45.637Z,0.60
2023-01-12T19:47:13.100Z,0.60
2023-01-12T19:49:39.876Z,0.50
2023-01-12T19:52:07.027Z,0.60
2023-01-12T19:54:34.321Z,0.50
2023-01-12T19:57:02.089Z,0.50
2023-01-12T19:59:29.088Z,0.50
2023-01-12T20:01:56.436Z,0.50
2023-01-12T20:04:23.733Z,0.60
2023-01-12T20:06:54.528Z,0.50
2023-01-12T20:09:21.704Z,0.50
2023-01-12T20:11:55.015Z,0.50
2023-01-12T20:14:23.843Z,0.50
2023-01-12T20:16:51.617Z,0.50
2023-01-12T20:19:20.785Z,0.50
2023-01-12T20:21:49.128Z,0.50
2023-01-12T20:24:16.854Z,0.50
2023-01-12T20:26:44.136Z,0.50
2023-01-12T20:29:11.456Z,0.60
2023-01-12T20:31:38.306Z,0.50
2023-01-12T20:34:05.211Z,0.50
2023-01-12T20:36:32.015Z,0.57
2023-01-12T20:38:59.100Z,0.50
2023-01-12T20:41:26.176Z,0.50
2023-01-12T20:43:53.007Z,0.52
2023-01-12T20:46:19.919Z,0.50
2023-01-12T20:48:46.806Z,0.50
2023-01-12T20:51:15.843Z,0.50
2023-01-12T20:53:43.316Z,0.57
2023-01-12T20:56:10.239Z,0.60
2023-01-12T20:58:37.381Z,0.50
2023-01-12T21:01:11.017Z,0.47
2023-01-12T21:03:38.314Z,0.50
2023-01-12T21:06:10.340Z,0.50
2023-01-12T21:08:43.151Z,0.50
2023-01-12T21:11:11.553Z,0.50
2023-01-12T21:13:38.272Z,0.40
2023-01-12T21:16:07.286Z,0.50
2023-01-12T21:18:34.534Z,0.55
2023-01-12T21:21:01.448Z,0.57
2023-01-12T21:23:28.218Z,0.50
2023-01-12T21:25:55.729Z,0.50
2023-01-12T21:28:23.615Z,0.50
2023-01-12T21:30:50.459Z,0.50
2023-01-12T21:33:17.770Z,0.50
2023-01-12T21:35:44.556Z,0.50
2023-01-12T21:38:11.205Z,0.50
2023-01-12T21:40:37.862Z,0.50
2023-01-12T21:43:10.320Z,0.50
2023-01-12T21:45:45.057Z,0.50
2023-01-12T21:48:13.341Z,0.50
2023-01-12T21:50:40.610Z,0.50
2023-01-12T21:53:07.915Z,0.50
2023-01-12T21:55:35.108Z,0.50
2023-01-12T21:58:04.560Z,0.60
2023-01-12T22:00:31.385Z,0.43
2023-01-12T22:02:58.323Z,0.50
2023-01-12T22:05:25.842Z,0.50
2023-01-12T22:07:52.765Z,0.50
2023-01-12T22:10:19.515Z,0.50
2023-01-12T22:12:46.898Z,0.50
2023-01-12T22:15:14.430Z,0.50
2023-01-12T22:17:42.011Z,0.50
2023-01-12T22:20:10.048Z,0.60
2023-01-12T22:22:40.036Z,0.50
2023-01-12T22:25:09.234Z,0.50
2023-01-12T22:27:36.545Z,0.60
2023-01-12T22:30:05.730Z,0.55
2023-01-12T22:32:32.447Z,0.50
2023-01-12T22:34:59.131Z,0.50
2023-01-12T22:37:27.192Z,0.50
2023-01-12T22:39:53.857Z,0.50
2023-01-12T22:42:42.808Z,0.50
2023-01-12T22:45:10.052Z,0.50
2023-01-12T22:47:47.783Z,0.50
2023-01-12T22:50:15.118Z,0.50
2023-01-12T22:52:41.916Z,0.50
2023-01-12T22:55:08.820Z,0.50
2023-01-12T22:57:35.428Z,0.50
2023-01-12T23:00:01.980Z,0.55
2023-01-12T23:02:48.458Z,0.50
2023-01-12T23:05:15.081Z,0.52
2023-01-12T23:07:41.629Z,0.50
2023-01-12T23:10:08.507Z,0.50
2023-01-12T23:12:35.086Z,0.60
2023-01-12T23:15:01.781Z,0.50
2023-01-12T23:17:28.843Z,0.50
2023-01-12T23:19:55.403Z,0.50
2023-01-12T23:22:21.999Z,0.50
2023-01-12T23:24:48.655Z,0.57
2023-01-12T23:27:15.264Z,0.50
2023-01-12T23:29:42.606Z,0.50
2023-01-12T23:32:09.249Z,0.50
2023-01-12T23:34:35.846Z,0.50
2023-01-12T23:37:02.417Z,0.60
2023-01-12T23:39:28.970Z,0.50
2023-01-12T23:41:55.562Z,0.50
2023-01-12T23:44:22.422Z,0.50
2023-01-12T23:46:48.991Z,0.57
2023-01-12T23:49:15.667Z,0.50
2023-01-12T23:51:42.534Z,0.55
2023-01-12T23:54:12.990Z,0.50
2023-01-12T23:56:39.556Z,0.50
2023-01-12T23:59:06.101Z,0.60
